createdAt,value
2022-11-03T00:02:14.606Z,1.20
2022-11-03T00:04:43.432Z,1.38
2022-11-03T00:07:12.034Z,1.35
2022-11-03T00:09:40.480Z,1.27
2022-11-03T00:12:09.176Z,1.40
2022-11-03T00:14:37.518Z,1.52
2022-11-03T00:17:07.285Z,1.23
2022-11-03T00:19:35.669Z,1.30
2022-11-03T00:22:04.020Z,1.10
2022-11-03T00:24:32.433Z,1.42
2022-11-03T00:27:00.839Z,1.38
2022-11-03T00:29:29.371Z,1.17
2022-11-03T00:31:57.729Z,1.38
2022-11-03T00:34:27.465Z,1.38
2022-11-03T00:36:55.790Z,1.27
2022-11-03T00:39:24.129Z,1.25
2022-11-03T00:41:53.502Z,1.35
2022-11-03T00:44:21.959Z,1.40
2022-11-03T00:46:50.419Z,1.60
2022-11-03T00:49:18.765Z,1.52
2022-11-03T00:51:48.620Z,1.40
2022-11-03T00:54:17.104Z,1.17
2022-11-03T00:56:45.466Z,1.08
2022-11-03T00:59:13.987Z,1.33
2022-11-03T01:01:46.962Z,1.20
2022-11-03T01:04:33.993Z,1.45
2022-11-03T01:07:05.855Z,0.95
2022-11-03T01:09:37.356Z,1.35
2022-11-03T01:12:08.241Z,1.20
2022-11-03T01:14:38.456Z,1.15
2022-11-03T01:17:07.284Z,1.27
2022-11-03T01:19:35.735Z,1.02
2022-11-03T01:22:09.531Z,1.15
2022-11-03T01:24:41.075Z,1.23
2022-11-03T01:27:09.767Z,1.00
2022-11-03T01:29:38.168Z,1.27
2022-11-03T01:32:08.243Z,1.33
2022-11-03T01:34:37.305Z,1.27
2022-11-03T01:37:07.699Z,1.00
2022-11-03T01:39:36.087Z,1.30
2022-11-03T01:42:04.864Z,1.20
2022-11-03T01:44:36.152Z,1.27
2022-11-03T01:47:12.824Z,1.05
2022-11-03T01:49:48.054Z,1.45
2022-11-03T01:52:24.901Z,1.00
2022-11-03T01:54:58.781Z,1.02
2022-11-03T01:57:35.129Z,1.25
2022-11-03T02:00:05.120Z,0.82
2022-11-03T02:02:41.379Z,1.27
2022-11-03T02:05:11.860Z,0.95
2022-11-03T02:07:48.167Z,1.00
2022-11-03T02:10:16.942Z,1.20
2022-11-03T02:12:45.402Z,1.40
2022-11-03T02:15:16.969Z,0.93
2022-11-03T02:17:48.466Z,1.10
2022-11-03T02:20:19.689Z,1.10
2022-11-03T02:23:14.341Z,0.90
2022-11-03T02:25:46.358Z,0.90
2022-11-03T02:28:18.672Z,1.27
2022-11-03T02:30:54.774Z,1.27
2022-11-03T02:33:32.179Z,1.17
2022-11-03T02:36:06.167Z,1.35
2022-11-03T02:38:40.419Z,1.30
2022-11-03T02:41:12.034Z,1.02
2022-11-03T02:43:42.788Z,1.05
2022-11-03T02:46:14.555Z,1.30
2022-11-03T02:48:43.113Z,1.10
2022-11-03T02:51:12.264Z,1.30
2022-11-03T02:53:47.298Z,1.23
2022-11-03T02:56:20.896Z,1.50
2022-11-03T02:58:57.035Z,1.40
2022-11-03T03:01:32.699Z,1.35
2022-11-03T03:04:05.150Z,1.10
2022-11-03T03:06:37.578Z,1.23
2022-11-03T03:09:13.611Z,1.73
2022-11-03T03:11:45.525Z,1.20
2022-11-03T03:14:18.463Z,1.45
2022-11-03T03:16:53.673Z,1.52
2022-11-03T03:19:35.379Z,1.52
2022-11-03T03:22:12.637Z,1.67
2022-11-03T03:24:48.468Z,1.92
2022-11-03T03:27:21.716Z,1.45
2022-11-03T03:29:53.716Z,1.30
2022-11-03T03:32:25.276Z,1.55
2022-11-03T03:34:55.810Z,1.75
2022-11-03T03:37:27.727Z,1.67
2022-11-03T03:40:00.775Z,1.55
2022-11-03T03:42:32.084Z,1.63
2022-11-03T03:45:01.774Z,1.55
2022-11-03T03:47:33.603Z,1.38
2022-11-03T03:50:02.700Z,1.70
2022-11-03T03:52:31.666Z,1.73
2022-11-03T03:55:00.414Z,1.90
2022-11-03T03:57:32.658Z,1.40
2022-11-03T04:00:01.042Z,1.75
2022-11-03T04:02:29.478Z,1.50
2022-11-03T04:04:58.418Z,1.70
2022-11-03T04:07:44.325Z,1.60
2022-11-03T04:10:12.741Z,1.65
2022-11-03T04:13:01.010Z,1.60
2022-11-03T04:15:47.342Z,1.52
2022-11-03T04:18:33.588Z,1.80
2022-11-03T04:21:19.657Z,1.67
2022-11-03T04:23:48.175Z,1.40
2022-11-03T04:26:18.416Z,1.88
2022-11-03T04:28:48.157Z,1.63
2022-11-03T04:31:18.226Z,1.48
2022-11-03T04:33:47.283Z,1.35
2022-11-03T04:36:19.258Z,1.27
2022-11-03T04:38:48.674Z,1.45
2022-11-03T04:41:19.407Z,1.40
2022-11-03T04:43:53.698Z,1.65
2022-11-03T04:46:26.649Z,1.48
2022-11-03T04:48:56.656Z,1.60
2022-11-03T04:51:30.984Z,1.65
2022-11-03T04:54:03.708Z,1.77
2022-11-03T04:56:33.663Z,1.30
2022-11-03T04:59:03.787Z,1.20
2022-11-03T05:01:33.022Z,1.30
2022-11-03T05:04:01.619Z,1.75
2022-11-03T05:06:30.902Z,1.75
2022-11-03T05:09:03.076Z,1.35
2022-11-03T05:11:35.620Z,1.83
2022-11-03T05:14:14.812Z,1.80
2022-11-03T05:16:43.380Z,1.45
2022-11-03T05:19:16.293Z,1.77
2022-11-03T05:21:44.952Z,1.42
2022-11-03T05:26:50.721Z,1.27
2022-11-03T05:29:23.605Z,1.65
2022-11-03T05:31:54.500Z,1.67
2022-11-03T05:34:33.385Z,1.30
2022-11-03T05:37:26.024Z,1.48
2022-11-03T05:39:57.527Z,1.77
2022-11-03T05:42:31.630Z,1.17
2022-11-03T05:45:02.808Z,1.48
2022-11-03T05:47:37.416Z,1.20
2022-11-03T05:50:17.489Z,1.58
2022-11-03T05:52:46.948Z,1.35
2022-11-03T05:55:36.834Z,1.48
2022-11-03T05:58:14.031Z,1.48
2022-11-03T06:00:48.571Z,1.70
2022-11-03T06:03:22.529Z,1.48
2022-11-03T06:05:51.463Z,1.50
2022-11-03T06:08:21.934Z,1.40
2022-11-03T06:10:54.201Z,1.38
2022-11-03T06:13:27.479Z,1.60
2022-11-03T06:16:00.229Z,1.20
2022-11-03T06:18:33.652Z,1.10
2022-11-03T06:21:08.755Z,1.15
2022-11-03T06:23:38.607Z,1.60
2022-11-03T06:26:16.139Z,1.52
2022-11-03T06:28:44.656Z,1.35
2022-11-03T06:31:22.896Z,1.30
2022-11-03T06:33:53.253Z,1.27
2022-11-03T06:36:25.779Z,1.30
2022-11-03T06:38:57.801Z,1.40
2022-11-03T06:41:28.467Z,1.35
2022-11-03T06:43:57.315Z,1.80
2022-11-03T06:46:27.698Z,1.52
2022-11-03T06:49:00.474Z,1.27
2022-11-03T06:51:30.372Z,1.52
2022-11-03T06:54:00.475Z,1.40
2022-11-03T06:56:32.628Z,1.30
2022-11-03T06:59:01.773Z,1.23
2022-11-03T07:01:33.900Z,1.70
2022-11-03T07:04:04.713Z,1.35
2022-11-03T07:07:05.342Z,1.20
2022-11-03T07:09:33.951Z,1.05
2022-11-03T07:12:02.356Z,1.25
2022-11-03T07:14:33.350Z,1.25
2022-11-03T07:17:05.918Z,1.15
2022-11-03T07:19:37.787Z,1.10
2022-11-03T07:22:15.586Z,1.40
2022-11-03T07:24:46.924Z,1.38
2022-11-03T07:27:21.584Z,1.52
2022-11-03T07:29:52.210Z,1.20
2022-11-03T07:32:25.082Z,1.00
2022-11-03T07:34:54.582Z,1.10
2022-11-03T07:37:25.467Z,1.08
2022-11-03T07:39:54.452Z,1.10
2022-11-03T07:42:25.138Z,1.42
2022-11-03T07:44:57.156Z,1.30
2022-11-03T07:47:29.105Z,1.10
2022-11-03T07:49:57.588Z,1.30
2022-11-03T07:52:27.770Z,1.27
2022-11-03T07:54:57.929Z,1.45
2022-11-03T07:57:30.325Z,1.33
2022-11-03T08:00:07.208Z,1.20
2022-11-03T08:06:29.600Z,1.00
2022-11-03T08:08:58.201Z,1.23
2022-11-03T08:11:29.325Z,1.15
2022-11-03T08:13:58.550Z,1.00
2022-11-03T08:16:27.157Z,1.30
2022-11-03T08:18:56.896Z,1.33
2022-11-03T08:21:25.382Z,1.30
2022-11-03T08:23:53.778Z,1.20
2022-11-03T08:26:22.358Z,1.27
2022-11-03T08:28:50.837Z,1.50
2022-11-03T08:31:19.434Z,1.20
2022-11-03T08:33:47.997Z,1.13
2022-11-03T08:36:22.207Z,1.23
2022-11-03T08:41:20.199Z,1.48
2022-11-03T08:43:48.552Z,1.50
2022-11-03T08:46:18.386Z,1.50
2022-11-03T08:48:47.275Z,1.17
2022-11-03T08:51:17.389Z,1.50
2022-11-03T08:53:46.273Z,1.05
2022-11-03T08:56:16.189Z,1.02
2022-11-03T08:58:47.626Z,1.27
2022-11-03T09:01:16.781Z,1.23
2022-11-03T09:03:45.290Z,1.20
2022-11-03T09:06:13.822Z,1.45
2022-11-03T09:11:31.989Z,1.17
2022-11-03T09:14:00.355Z,1.00
2022-11-03T09:16:28.812Z,0.93
2022-11-03T09:18:57.363Z,1.20
2022-11-03T09:21:25.824Z,1.30
2022-11-03T09:23:56.293Z,1.20
2022-11-03T09:26:24.831Z,1.10
2022-11-03T09:28:53.437Z,1.02
2022-11-03T09:31:21.914Z,1.17
2022-11-03T09:33:50.273Z,1.20
2022-11-03T09:36:18.650Z,1.58
2022-11-03T09:38:47.122Z,1.13
2022-11-03T09:41:26.510Z,1.30
2022-11-03T09:43:58.766Z,1.15
2022-11-03T09:46:29.473Z,1.20
2022-11-03T09:49:00.374Z,1.05
2022-11-03T09:51:29.231Z,1.05
2022-11-03T09:54:00.215Z,1.30
2022-11-03T09:56:38.109Z,1.10
2022-11-03T09:59:15.677Z,1.20
2022-11-03T10:01:48.726Z,1.20
2022-11-03T10:04:20.294Z,0.88
2022-11-03T10:06:48.732Z,1.13
2022-11-03T10:09:18.812Z,1.20
2022-11-03T10:11:48.978Z,0.95
2022-11-03T10:14:19.460Z,1.00
2022-11-03T10:16:53.766Z,1.30
2022-11-03T10:19:22.386Z,1.20
2022-11-03T10:21:52.661Z,0.98
2022-11-03T10:24:21.299Z,1.20
2022-11-03T10:26:52.575Z,1.08
2022-11-03T10:29:23.073Z,1.20
2022-11-03T10:31:53.516Z,0.90
2022-11-03T10:34:28.029Z,0.90
2022-11-03T10:37:12.548Z,1.00
2022-11-03T10:39:41.111Z,1.00
2022-11-03T10:42:18.817Z,1.00
2022-11-03T10:44:47.364Z,1.00
2022-11-03T10:47:34.138Z,1.30
2022-11-03T10:50:20.121Z,1.15
2022-11-03T10:52:48.675Z,1.10
2022-11-03T10:55:20.595Z,1.27
2022-11-03T10:57:55.511Z,1.00
2022-11-03T11:00:24.497Z,1.10
2022-11-03T11:02:58.780Z,1.10
2022-11-03T11:05:27.450Z,1.20
2022-11-03T11:07:56.519Z,1.20
2022-11-03T11:10:26.522Z,1.30
2022-11-03T11:13:25.541Z,0.80
2022-11-03T11:15:56.159Z,1.02
2022-11-03T11:19:13.238Z,0.90
2022-11-03T11:22:09.875Z,1.00
2022-11-03T11:24:58.405Z,0.90
2022-11-03T11:27:58.589Z,0.90
2022-11-03T11:30:58.047Z,1.00
2022-11-03T11:33:31.463Z,0.95
2022-11-03T11:36:29.575Z,0.90
2022-11-03T11:38:59.693Z,1.10
2022-11-03T11:42:04.405Z,0.95
2022-11-03T11:44:53.283Z,0.93
2022-11-03T11:47:33.207Z,1.00
2022-11-03T11:50:13.400Z,0.95
2022-11-03T11:52:44.405Z,1.42
2022-11-03T11:55:20.104Z,1.00
2022-11-03T11:57:48.685Z,1.10
2022-11-03T12:00:22.267Z,1.10
2022-11-03T12:02:53.332Z,1.27
2022-11-03T12:05:25.971Z,1.02
2022-11-03T12:07:54.979Z,1.15
2022-11-03T12:10:26.082Z,1.00
2022-11-03T12:12:55.111Z,1.15
2022-11-03T12:15:49.255Z,1.10
2022-11-03T12:18:36.578Z,1.08
2022-11-03T12:21:16.721Z,1.02
2022-11-03T12:23:47.530Z,1.00
2022-11-03T12:26:39.933Z,1.10
2022-11-03T12:29:08.762Z,1.20
2022-11-03T12:31:39.890Z,1.10
2022-11-03T12:34:17.305Z,1.10
2022-11-03T12:36:46.157Z,1.30
2022-11-03T12:39:14.645Z,1.10
2022-11-03T12:41:43.010Z,0.90
2022-11-03T12:44:13.078Z,1.05
2022-11-03T12:46:41.495Z,1.15
2022-11-03T12:49:09.881Z,0.98
2022-11-03T12:51:39.587Z,1.20
2022-11-03T12:54:07.937Z,1.00
2022-11-03T12:56:38.643Z,1.00
2022-11-03T12:59:07.854Z,0.82
2022-11-03T13:01:36.462Z,1.00
2022-11-03T13:04:06.115Z,0.90
2022-11-03T13:06:35.072Z,1.00
2022-11-03T13:09:07.781Z,0.90
2022-11-03T13:11:53.557Z,1.08
2022-11-03T13:16:50.230Z,0.98
2022-11-03T13:19:18.616Z,1.00
2022-11-03T13:21:47.115Z,1.27
2022-11-03T13:24:16.853Z,0.90
2022-11-03T13:26:45.327Z,1.20
2022-11-03T13:29:13.715Z,0.90
2022-11-03T13:31:42.098Z,1.05
2022-11-03T13:34:10.463Z,1.00
2022-11-03T13:36:41.547Z,1.00
2022-11-03T13:39:10.009Z,0.90
2022-11-03T13:41:39.751Z,0.85
2022-11-03T13:44:08.662Z,1.00
2022-11-03T13:46:37.222Z,0.90
2022-11-03T13:49:52.058Z,1.00
2022-11-03T13:51:54.514Z,1.00
2022-11-03T14:00:03.729Z,1.08
2022-11-03T14:05:29.371Z,1.00
2022-11-03T14:07:58.298Z,1.10
2022-11-03T14:10:26.966Z,1.08
2022-11-03T14:12:55.826Z,1.10
2022-11-03T14:15:24.170Z,1.30
2022-11-03T14:17:52.942Z,1.55
2022-11-03T14:20:21.586Z,1.42
2022-11-03T14:22:50.997Z,1.30
2022-11-03T14:25:20.292Z,1.20
2022-11-03T14:27:48.853Z,1.45
2022-11-03T14:30:18.919Z,1.65
2022-11-03T14:33:06.493Z,1.60
2022-11-03T14:35:46.712Z,1.42
2022-11-03T14:38:15.518Z,1.40
2022-11-03T14:41:01.720Z,1.70
2022-11-03T14:43:34.938Z,1.55
2022-11-03T14:46:05.459Z,1.60
2022-11-03T14:48:33.876Z,1.40
2022-11-03T14:51:02.317Z,1.42
2022-11-03T14:53:30.955Z,1.52
2022-11-03T14:56:00.242Z,1.50
2022-11-03T14:58:28.731Z,1.65
2022-11-03T15:01:02.181Z,1.83
2022-11-03T15:03:32.081Z,1.38
2022-11-03T15:06:00.550Z,1.73
2022-11-03T15:08:31.505Z,1.50
2022-11-03T15:10:59.948Z,1.40
2022-11-03T15:13:28.424Z,1.48
2022-11-03T15:16:06.905Z,1.50
2022-11-03T15:18:36.907Z,1.50
2022-11-03T15:21:06.171Z,1.63
2022-11-03T15:26:23.491Z,1.38
2022-11-03T15:28:53.751Z,1.58
2022-11-03T15:31:23.583Z,1.27
2022-11-03T15:33:57.521Z,1.50
2022-11-03T15:36:28.438Z,1.45
2022-11-03T15:38:58.928Z,1.30
2022-11-03T15:41:40.707Z,1.65
2022-11-03T15:44:13.180Z,1.40
2022-11-03T15:47:06.699Z,1.40
2022-11-03T15:49:41.151Z,1.20
2022-11-03T15:52:25.123Z,1.48
2022-11-03T15:54:54.640Z,1.52
2022-11-03T15:57:28.641Z,1.80
2022-11-03T15:59:57.948Z,1.35
2022-11-03T16:02:57.991Z,1.33
2022-11-03T16:05:28.725Z,0.98
2022-11-03T16:07:57.399Z,1.60
2022-11-03T16:10:26.000Z,1.40
2022-11-03T16:12:54.575Z,1.35
2022-11-03T16:15:23.057Z,1.25
2022-11-03T16:17:51.559Z,1.65
2022-11-03T16:20:21.852Z,1.45
2022-11-03T16:25:21.662Z,1.70
2022-11-03T16:27:50.451Z,1.52
2022-11-03T16:30:19.029Z,1.50
2022-11-03T16:32:47.480Z,1.35
2022-11-03T16:35:16.074Z,1.50
2022-11-03T16:37:44.800Z,1.70
2022-11-03T16:40:19.450Z,1.20
2022-11-03T16:42:48.862Z,1.25
2022-11-03T16:45:19.675Z,1.60
2022-11-03T16:47:49.361Z,1.73
2022-11-03T16:50:18.650Z,1.40
2022-11-03T16:52:55.619Z,1.70
2022-11-03T16:55:25.693Z,1.35
2022-11-03T16:57:54.299Z,1.23
2022-11-03T17:00:24.100Z,1.35
2022-11-03T17:02:53.029Z,1.40
2022-11-03T17:05:22.484Z,1.27
2022-11-03T17:07:54.032Z,1.48
2022-11-03T17:10:24.807Z,1.58
2022-11-03T17:12:53.404Z,1.45
2022-11-03T17:15:21.892Z,1.60
2022-11-03T17:17:50.483Z,1.30
2022-11-03T17:20:19.487Z,1.30
2022-11-03T17:22:48.531Z,1.88
2022-11-03T17:25:16.994Z,1.80
2022-11-03T17:27:50.218Z,1.70
2022-11-03T17:30:21.148Z,1.40
2022-11-03T17:32:51.706Z,1.35
2022-11-03T17:35:23.075Z,1.52
2022-11-03T17:37:54.647Z,1.63
2022-11-03T17:40:25.474Z,1.30
2022-11-03T17:42:55.331Z,1.33
2022-11-03T17:45:25.846Z,1.50
2022-11-03T17:47:54.795Z,1.60
2022-11-03T17:50:25.359Z,1.50
2022-11-03T17:52:55.013Z,1.40
2022-11-03T17:55:29.071Z,1.55
2022-11-03T17:58:01.762Z,1.35
2022-11-03T18:00:30.861Z,1.40
2022-11-03T18:02:59.279Z,1.58
2022-11-03T18:05:30.210Z,1.40
2022-11-03T18:08:00.376Z,1.10
2022-11-03T18:10:32.559Z,1.52
2022-11-03T18:13:18.766Z,1.20
2022-11-03T18:15:50.281Z,1.30
2022-11-03T18:18:21.653Z,1.20
2022-11-03T18:20:53.588Z,1.33
2022-11-03T18:23:24.261Z,1.40
2022-11-03T18:25:53.572Z,1.10
2022-11-03T18:28:23.603Z,1.20
2022-11-03T18:30:54.610Z,1.30
2022-11-03T18:33:25.963Z,1.20
2022-11-03T18:35:55.087Z,1.30
2022-11-03T18:38:25.363Z,2.22
2022-11-03T18:40:53.745Z,1.70
2022-11-03T18:43:25.030Z,1.20
2022-11-03T18:45:53.608Z,1.30
2022-11-03T18:48:22.288Z,1.30
2022-11-03T18:50:52.487Z,1.20
2022-11-03T18:53:23.661Z,1.10
2022-11-03T18:55:52.570Z,1.33
2022-11-03T18:58:24.384Z,0.95
2022-11-03T19:00:53.587Z,1.27
2022-11-03T19:03:24.065Z,1.20
2022-11-03T19:05:54.220Z,1.15
2022-11-03T19:08:27.028Z,1.33
2022-11-03T19:10:56.917Z,1.30
2022-11-03T19:13:29.735Z,1.30
2022-11-03T19:16:00.278Z,1.20
2022-11-03T19:18:29.893Z,1.20
2022-11-03T19:20:58.348Z,1.08
2022-11-03T19:23:26.816Z,1.15
2022-11-03T19:25:58.767Z,1.20
2022-11-03T19:28:32.186Z,1.00
2022-11-03T19:31:01.716Z,1.10
2022-11-03T19:33:31.829Z,1.27
2022-11-03T19:36:00.439Z,1.30
2022-11-03T19:38:28.869Z,0.93
2022-11-03T19:41:14.999Z,0.90
2022-11-03T19:43:44.879Z,1.00
2022-11-03T19:46:20.114Z,1.20
2022-11-03T19:48:48.937Z,1.17
2022-11-03T19:51:17.382Z,1.52
2022-11-03T19:53:47.367Z,1.00
2022-11-03T19:56:17.263Z,1.00
2022-11-03T19:58:47.337Z,1.10
2022-11-03T20:01:15.948Z,1.00
2022-11-03T20:03:44.847Z,1.05
2022-11-03T20:06:19.016Z,0.90
2022-11-03T20:08:48.259Z,1.20
2022-11-03T20:11:16.607Z,1.20
2022-11-03T20:13:46.723Z,1.20
2022-11-03T20:16:16.981Z,1.20
2022-11-03T20:18:45.588Z,1.17
2022-11-03T20:21:16.839Z,1.20
2022-11-03T20:23:47.223Z,1.30
2022-11-03T20:26:18.525Z,1.13
2022-11-03T20:28:48.489Z,1.20
2022-11-03T20:31:18.313Z,1.13
2022-11-03T20:33:46.746Z,1.30
2022-11-03T20:36:17.232Z,1.30
2022-11-03T20:38:48.457Z,1.25
2022-11-03T20:41:17.527Z,1.20
2022-11-03T20:43:48.253Z,1.40
2022-11-03T20:46:23.089Z,1.23
2022-11-03T20:48:51.683Z,1.35
2022-11-03T20:51:22.336Z,1.40
2022-11-03T20:53:50.854Z,1.55
2022-11-03T20:56:20.829Z,1.40
2022-11-03T20:58:50.632Z,1.40
2022-11-03T21:01:23.756Z,1.33
2022-11-03T21:03:59.260Z,1.25
2022-11-03T21:06:30.279Z,1.20
2022-11-03T21:08:59.320Z,1.38
2022-11-03T21:11:30.827Z,1.52
2022-11-03T21:14:02.839Z,1.27
2022-11-03T21:16:49.396Z,1.45
2022-11-03T21:19:36.950Z,1.40
2022-11-03T21:25:03.405Z,1.05
2022-11-03T21:27:31.943Z,1.05
2022-11-03T21:30:01.756Z,1.02
2022-11-03T21:32:30.166Z,1.10
2022-11-03T21:34:58.688Z,1.35
2022-11-03T21:37:27.145Z,0.95
2022-11-03T21:39:55.523Z,0.98
2022-11-03T21:42:41.434Z,1.08
2022-11-03T21:45:12.182Z,1.20
2022-11-03T21:48:00.527Z,1.30
2022-11-03T21:50:27.929Z,1.10
2022-11-03T21:52:57.429Z,1.27
2022-11-03T21:55:26.143Z,1.20
2022-11-03T21:57:54.501Z,1.38
2022-11-03T22:00:24.520Z,1.10
2022-11-03T22:02:52.893Z,0.90
2022-11-03T22:05:21.388Z,1.02
2022-11-03T22:07:49.794Z,1.00
2022-11-03T22:10:18.335Z,0.90
2022-11-03T22:12:46.664Z,0.90
2022-11-03T22:15:33.127Z,0.80
2022-11-03T22:20:48.580Z,0.65
2022-11-03T22:23:34.701Z,1.02
2022-11-03T22:29:09.464Z,1.10
2022-11-03T22:31:45.494Z,1.00
2022-11-03T22:34:32.670Z,1.00
2022-11-03T22:37:01.075Z,0.85
2022-11-03T22:39:47.573Z,0.80
2022-11-03T22:45:24.532Z,0.73
2022-11-03T22:47:57.337Z,0.95
2022-11-03T22:50:27.408Z,0.90
2022-11-03T22:52:55.796Z,0.80
2022-11-03T22:55:23.472Z,0.90
2022-11-03T22:57:52.189Z,0.88
2022-11-03T23:00:22.238Z,0.90
2022-11-03T23:02:54.187Z,0.75
2022-11-03T23:05:22.558Z,0.88
2022-11-03T23:07:52.229Z,1.00
2022-11-03T23:10:22.842Z,1.42
2022-11-03T23:12:51.151Z,1.02
2022-11-03T23:15:34.603Z,1.02
2022-11-03T23:18:22.723Z,1.10
2022-11-03T23:21:09.367Z,1.35
2022-11-03T23:23:58.294Z,1.30
2022-11-03T23:26:28.739Z,1.50
2022-11-03T23:28:57.089Z,1.73
2022-11-03T23:31:25.689Z,1.90
2022-11-03T23:33:54.158Z,1.85
2022-11-03T23:36:22.500Z,2.03
2022-11-03T23:38:52.592Z,2.10
2022-11-03T23:41:21.070Z,2.00
2022-11-03T23:43:49.634Z,2.08
2022-11-03T23:46:37.996Z,2.30
2022-11-03T23:49:06.914Z,2.00
2022-11-03T23:51:37.071Z,2.10
2022-11-03T23:54:08.991Z,2.10
2022-11-03T23:56:57.141Z,2.22
2022-11-03T23:59:26.427Z,1.90
